Time;durP1;ratioP1;P1;durP2;ratioP2;P2;SDS_P1;SDS_P2;PMS_P1;PMS_P2;Temp;Humidity;BMP_temperature;BMP_pressure;BME280_temperature;BME280_humidity;BME280_pressure;Samples;Min_cycle;Max_cycle;Signal;HPM_P1;HPM_P2
2023/05/07 00:00:17;;;;;;;1.60;1.50;;;;;;;20.70;57.33;97440.91;4971037;28;20223;-29
2023/05/07 00:02:47;;;;;;;1.73;1.63;;;;;;;20.69;57.37;97441.72;4970032;28;20200;-29
2023/05/07 00:05:14;;;;;;;1.70;1.60;;;;;;;20.69;56.74;97444.25;4970554;28;20234;-29
2023/05/07 00:07:41;;;;;;;1.67;1.57;;;;;;;20.67;57.58;97440.81;4969224;28;20285;-38
2023/05/07 00:10:08;;;;;;;1.60;1.50;;;;;;;20.68;57.35;97442.53;4968896;28;20216;-29
2023/05/07 00:12:35;;;;;;;1.60;1.50;;;;;;;20.68;57.59;97437.44;4971089;28;20208;-42
2023/05/07 00:15:02;;;;;;;1.97;1.70;;;;;;;20.67;57.22;97433.16;4970584;28;20232;-32
2023/05/07 00:17:30;;;;;;;1.70;1.60;;;;;;;20.65;57.46;97442.44;4969107;28;20204;-28
2023/05/07 00:19:56;;;;;;;1.60;1.50;;;;;;;20.66;57.53;97440.78;4970423;28;20223;-37
2023/05/07 00:22:23;;;;;;;2.33;1.80;;;;;;;20.65;56.90;97442.44;4968453;28;20319;-29
2023/05/07 00:24:49;;;;;;;2.30;1.50;;;;;;;20.66;57.78;97446.72;4967849;28;20202;-28
2023/05/07 00:27:16;;;;;;;1.60;1.50;;;;;;;20.66;57.02;97436.50;4969879;28;20306;-29
2023/05/07 00:29:42;;;;;;;1.60;1.50;;;;;;;20.66;57.95;97435.66;4969939;28;20251;-30
2023/05/07 00:32:09;;;;;;;1.80;1.70;;;;;;;20.66;57.45;97433.97;4970476;28;20246;-29
2023/05/07 00:34:36;;;;;;;2.90;1.80;;;;;;;20.67;57.40;97442.50;4971777;28;20230;-29
2023/05/07 00:37:02;;;;;;;1.83;1.73;;;;;;;20.67;56.91;97445.94;4968184;28;20203;-29
2023/05/07 00:39:32;;;;;;;1.70;1.60;;;;;;;20.67;57.56;97451.03;4970023;28;20703;-33
2023/05/07 00:41:58;;;;;;;1.63;1.53;;;;;;;20.68;57.44;97451.88;4970107;28;20231;-29
2023/05/07 00:44:25;;;;;;;1.80;1.70;;;;;;;20.70;57.60;97452.81;4969978;28;20205;-36
2023/05/07 00:46:51;;;;;;;1.77;1.60;;;;;;;20.69;57.48;97439.16;4969732;28;20199;-29
2023/05/07 00:49:18;;;;;;;1.87;1.70;;;;;;;20.59;57.35;97432.03;4965886;28;20675;-29
2023/05/07 00:51:45;;;;;;;1.90;1.70;;;;;;;20.67;57.28;97439.94;4969632;28;20203;-36
2023/05/07 00:54:11;;;;;;;1.70;1.60;;;;;;;20.66;56.96;97435.66;4968780;28;20235;-29
2023/05/07 00:56:39;;;;;;;1.67;1.57;;;;;;;20.68;57.49;97437.44;4953711;28;20210;-28
2023/05/07 00:59:05;;;;;;;1.70;1.60;;;;;;;20.69;57.35;97440.88;4967669;28;20474;-28
2023/05/07 01:01:32;;;;;;;1.87;1.63;;;;;;;20.67;57.22;97448.47;4962495;28;20207;-29
2023/05/07 01:03:58;;;;;;;1.87;1.70;;;;;;;20.67;56.90;97442.50;4970134;28;20286;-30
2023/05/07 01:06:27;;;;;;;1.63;1.53;;;;;;;20.66;57.37;97448.44;4968394;28;20196;-29
2023/05/07 01:08:56;;;;;;;1.67;1.57;;;;;;;20.65;57.60;97439.00;4967645;28;20203;-28
2023/05/07 01:11:23;;;;;;;1.97;1.77;;;;;;;20.61;57.48;97432.09;4967210;28;20223;-29
2023/05/07 01:13:50;;;;;;;1.70;1.60;;;;;;;20.64;57.42;97439.84;4951800;28;20218;-28
2023/05/07 01:16:16;;;;;;;2.00;1.80;;;;;;;20.64;58.09;97437.28;4968197;28;20290;-29
2023/05/07 01:18:43;;;;;;;1.60;1.50;;;;;;;20.64;57.43;97427.97;4950364;28;20295;-29
2023/05/07 01:21:10;;;;;;;1.50;1.40;;;;;;;20.64;57.46;97427.97;4950484;28;20216;-28
2023/05/07 01:23:37;;;;;;;1.57;1.47;;;;;;;20.66;57.21;97423.75;4968948;28;20211;-30
2023/05/07 01:26:03;;;;;;;2.10;1.77;;;;;;;20.65;57.37;97422.03;4952003;28;20728;-29
2023/05/07 01:28:30;;;;;;;1.60;1.50;;;;;;;20.66;57.53;97418.63;4969570;28;20203;-29
2023/05/07 01:31:01;;;;;;;1.50;1.40;;;;;;;20.68;57.68;97416.13;4969380;28;20231;-28
2023/05/07 01:33:28;;;;;;;1.70;1.60;;;;;;;20.68;57.43;97418.69;4971097;28;20206;-29
2023/05/07 01:35:54;;;;;;;1.80;1.70;;;;;;;20.69;57.40;97417.88;4955076;28;20719;-29
2023/05/07 01:38:21;;;;;;;1.60;1.50;;;;;;;20.66;57.05;97418.63;4970986;28;20421;-28
2023/05/07 01:40:48;;;;;;;1.57;1.47;;;;;;;20.67;57.94;97415.28;4970841;28;20215;-29
2023/05/07 01:43:15;;;;;;;1.57;1.47;;;;;;;20.68;57.51;97418.69;4970640;28;20695;-28
2023/05/07 01:45:41;;;;;;;2.17;1.97;;;;;;;20.65;57.16;97418.59;4972316;28;20200;-28
2023/05/07 01:48:10;;;;;;;1.80;1.70;;;;;;;20.69;57.47;97423.00;4954524;28;20227;-28
2023/05/07 01:50:37;;;;;;;3.73;1.60;;;;;;;20.68;57.13;97413.56;4955157;28;20223;-28
2023/05/07 01:53:04;;;;;;;1.57;1.47;;;;;;;20.67;57.39;97416.97;4970407;28;20200;-29
2023/05/07 01:55:30;;;;;;;2.13;1.67;;;;;;;20.67;57.51;97425.50;4971599;28;20322;-29
2023/05/07 01:57:57;;;;;;;1.80;1.70;;;;;;;20.66;58.01;97421.19;4967888;28;20259;-28
2023/05/07 02:00:23;;;;;;;1.97;1.70;;;;;;;20.64;57.63;97420.28;4971613;28;20226;-28
2023/05/07 02:02:51;;;;;;;1.60;1.50;;;;;;;20.63;57.27;97421.09;4971509;28;20687;-28
2023/05/07 02:05:18;;;;;;;1.73;1.63;;;;;;;20.63;57.53;97421.09;4971592;28;20202;-28
2023/05/07 02:07:44;;;;;;;1.70;1.60;;;;;;;20.64;57.49;97416.88;4971636;28;20203;-28
2023/05/07 02:10:11;;;;;;;1.53;1.43;;;;;;;20.63;57.24;97417.69;4971666;28;20219;-31
2023/05/07 02:12:38;;;;;;;1.70;1.60;;;;;;;20.65;57.86;97423.69;4971501;28;20196;-28
2023/05/07 02:15:05;;;;;;;1.73;1.63;;;;;;;20.64;57.65;97417.75;4971973;28;20933;-29
2023/05/07 02:17:32;;;;;;;1.90;1.70;;;;;;;20.66;57.46;97422.91;4976441;28;20246;-28
2023/05/07 02:19:59;;;;;;;1.80;1.70;;;;;;;20.65;57.56;97437.34;4973440;28;20251;-28
2023/05/07 02:22:26;;;;;;;1.63;1.53;;;;;;;20.67;57.53;97419.50;4975706;28;20215;-28
2023/05/07 02:24:52;;;;;;;1.70;1.60;;;;;;;20.67;57.40;97422.06;4971561;28;20196;-28
2023/05/07 02:27:19;;;;;;;1.90;1.80;;;;;;;20.67;57.59;97417.84;4972242;28;20207;-28
2023/05/07 02:29:46;;;;;;;1.70;1.60;;;;;;;20.69;57.32;97412.78;4974193;28;20231;-28
2023/05/07 02:32:12;;;;;;;1.70;1.60;;;;;;;20.69;57.31;97423.84;4977683;28;20209;-29
2023/05/07 02:34:39;;;;;;;1.50;1.40;;;;;;;20.69;57.58;97423.00;4974686;28;20270;-28
2023/05/07 02:37:05;;;;;;;1.70;1.60;;;;;;;20.68;57.77;97423.78;4974311;28;20254;-30
2023/05/07 02:39:32;;;;;;;1.50;1.40;;;;;;;20.67;57.28;97422.94;4974374;28;20223;-29
2023/05/07 02:41:59;;;;;;;1.60;1.50;;;;;;;20.67;57.49;97430.59;4975161;28;20200;-29
2023/05/07 02:44:25;;;;;;;1.67;1.57;;;;;;;20.66;57.37;97423.75;4974848;28;20286;-29
2023/05/07 02:46:52;;;;;;;1.70;1.60;;;;;;;20.67;57.09;97428.06;4974725;28;20203;-29
2023/05/07 02:49:18;;;;;;;1.60;1.50;;;;;;;20.67;57.76;97424.63;4974669;28;20203;-29
2023/05/07 02:51:45;;;;;;;1.83;1.50;;;;;;;20.65;57.70;97427.13;4974935;28;20251;-29
2023/05/07 02:54:11;;;;;;;1.60;1.50;;;;;;;20.64;57.70;97427.97;4974408;28;20279;-29
2023/05/07 02:56:38;;;;;;;1.70;1.60;;;;;;;20.64;57.68;97430.50;4974786;28;20646;-28
2023/05/07 02:59:05;;;;;;;1.60;1.50;;;;;;;20.64;57.76;97420.28;4974493;28;20279;-36
2023/05/07 03:01:31;;;;;;;1.70;1.60;;;;;;;20.64;57.67;97420.28;4974617;28;20196;-29
2023/05/07 03:03:58;;;;;;;1.90;1.70;;;;;;;20.64;57.70;97420.28;4974784;28;20203;-28
2023/05/07 03:06:25;;;;;;;1.60;1.50;;;;;;;20.63;57.75;97423.66;4974294;28;20294;-29
2023/05/07 03:08:51;;;;;;;1.50;1.40;;;;;;;20.65;57.22;97419.47;4974615;28;20206;-28
2023/05/07 03:11:18;;;;;;;1.30;1.30;;;;;;;20.67;57.63;97419.50;4978855;28;20660;-28
2023/05/07 03:13:45;;;;;;;1.70;1.60;;;;;;;20.67;57.50;97416.97;4974610;28;20204;-29
2023/05/07 03:16:11;;;;;;;1.50;1.40;;;;;;;20.67;57.15;97412.72;4974179;28;20227;-29
2023/05/07 03:18:38;;;;;;;1.40;1.30;;;;;;;20.68;57.06;97416.13;4980507;28;20647;-29
2023/05/07 03:21:05;;;;;;;1.60;1.50;;;;;;;20.69;57.39;97415.34;4977245;28;20270;-29
2023/05/07 03:23:31;;;;;;;1.70;1.60;;;;;;;20.68;57.35;97437.44;4976181;28;20229;-29
2023/05/07 03:25:58;;;;;;;1.60;1.50;;;;;;;20.69;57.24;97413.63;4981642;28;20195;-28
2023/05/07 03:28:24;;;;;;;1.60;1.50;;;;;;;20.68;57.43;97424.66;4974651;28;20231;-29
2023/05/07 03:30:51;;;;;;;1.60;1.50;;;;;;;20.60;57.79;97402.28;4980954;28;20254;-30
2023/05/07 03:33:17;;;;;;;1.50;1.40;;;;;;;20.68;57.45;97426.34;4976398;28;20706;-28
2023/05/07 03:35:44;;;;;;;1.53;1.43;;;;;;;20.67;57.42;97422.06;4974084;28;20219;-29
2023/05/07 03:38:10;;;;;;;1.60;1.50;;;;;;;20.67;57.43;97419.50;4976388;28;20235;-28
2023/05/07 03:40:37;;;;;;;2.27;1.47;;;;;;;20.65;57.53;97418.59;4972730;28;20219;-28
2023/05/07 03:43:04;;;;;;;1.47;1.37;;;;;;;20.64;57.63;97421.97;4976188;28;20294;-29
2023/05/07 03:45:30;;;;;;;1.70;1.60;;;;;;;20.62;57.48;97437.25;4973307;28;20236;-28
2023/05/07 03:47:57;;;;;;;1.60;1.50;;;;;;;20.64;57.71;97434.75;4975141;28;20562;-28
2023/05/07 03:50:24;;;;;;;1.60;1.50;;;;;;;20.64;57.54;97440.72;4973512;28;20219;-36
2023/05/07 03:52:50;;;;;;;1.70;1.60;;;;;;;20.65;57.27;97449.22;4973854;28;20218;-28
2023/05/07 03:55:17;;;;;;;1.50;1.40;;;;;;;20.55;57.75;97431.91;4976484;28;20597;-31
2023/05/07 03:57:44;;;;;;;1.50;1.40;;;;;;;20.65;57.43;97442.44;4977553;28;20257;-29
2023/05/07 04:00:11;;;;;;;1.50;1.40;;;;;;;20.67;57.45;97451.03;4978919;28;20251;-28
2023/05/07 04:02:38;;;;;;;1.60;1.50;;;;;;;20.67;57.51;97452.72;4973157;28;20214;-29
2023/05/07 04:05:05;;;;;;;1.67;1.57;;;;;;;20.68;57.48;97450.19;4973495;28;20200;-29
2023/05/07 04:07:32;;;;;;;1.30;1.30;;;;;;;20.68;57.54;97454.44;4981621;28;20242;-29
2023/05/07 04:09:58;;;;;;;1.63;1.53;;;;;;;20.68;57.39;97447.66;4973544;28;20232;-34
2023/05/07 04:12:25;;;;;;;1.40;1.30;;;;;;;20.70;57.57;97452.81;4973477;28;20307;-29
2023/05/07 04:14:51;;;;;;;1.47;1.37;;;;;;;20.69;57.52;97461.28;4975571;28;20215;-28
2023/05/07 04:17:18;;;;;;;1.60;1.50;;;;;;;20.68;56.93;97467.19;4976163;28;20286;-29
2023/05/07 04:19:45;;;;;;;1.60;1.50;;;;;;;20.69;57.18;97466.41;4964603;28;20334;-28
2023/05/07 04:22:12;;;;;;;1.60;1.50;;;;;;;20.68;57.24;97459.53;4968468;28;20290;-29
2023/05/07 04:24:38;;;;;;;1.47;1.37;;;;;;;20.67;57.56;97468.03;4972052;28;20590;-28
2023/05/07 04:27:06;;;;;;;1.60;1.50;;;;;;;20.67;57.78;97465.47;4972948;28;20294;-28
2023/05/07 04:29:32;;;;;;;1.57;1.47;;;;;;;20.67;57.65;97466.34;4980324;28;20596;-28
2023/05/07 04:31:59;;;;;;;1.80;1.70;;;;;;;20.65;57.87;97462.88;4969875;23;20224;-31
2023/05/07 04:34:26;;;;;;;1.50;1.40;;;;;;;20.64;57.79;97458.59;4955610;28;20228;-31
2023/05/07 04:36:52;;;;;;;1.37;1.37;;;;;;;20.60;57.67;97454.19;4956433;28;20589;-31
2023/05/07 04:39:19;;;;;;;1.50;1.40;;;;;;;20.65;57.42;97467.97;4971345;28;20750;-31
2023/05/07 04:41:46;;;;;;;1.80;1.70;;;;;;;20.64;57.63;97453.50;4956654;28;20671;-32
2023/05/07 04:44:12;;;;;;;1.53;1.43;;;;;;;20.64;57.77;97461.16;4955780;28;20207;-31
2023/05/07 04:46:39;;;;;;;1.57;1.47;;;;;;;20.65;57.69;97454.34;4956429;28;20204;-31
2023/05/07 04:49:05;;;;;;;1.50;1.40;;;;;;;20.65;57.42;97450.09;4957004;28;20244;-31
2023/05/07 04:51:32;;;;;;;1.50;1.40;;;;;;;20.65;57.39;97445.00;4952757;28;20232;-31
2023/05/07 04:53:59;;;;;;;1.70;1.60;;;;;;;20.66;57.25;97449.28;4953228;28;20212;-31
2023/05/07 04:56:28;;;;;;;1.57;1.47;;;;;;;20.67;57.48;97447.59;4954130;28;20225;-31
2023/05/07 04:58:55;;;;;;;1.50;1.40;;;;;;;20.68;57.09;97455.31;4956994;28;20210;-31
2023/05/07 05:01:22;;;;;;;1.60;1.50;;;;;;;20.68;57.34;97446.78;4956328;28;20659;-31
2023/05/07 05:03:48;;;;;;;1.60;1.50;;;;;;;20.68;57.43;97455.31;4953094;28;20208;-31
2023/05/07 05:06:15;;;;;;;1.80;1.70;;;;;;;20.69;57.47;97461.28;4953782;28;20197;-33
2023/05/07 05:08:42;;;;;;;1.60;1.50;;;;;;;20.70;57.21;97463.03;4956473;28;20205;-31
2023/05/07 05:11:08;;;;;;;1.70;1.60;;;;;;;20.68;57.08;97465.53;4956964;28;20310;-31
2023/05/07 05:13:35;;;;;;;1.50;1.40;;;;;;;20.68;56.97;97470.63;4955793;28;20232;-31
2023/05/07 05:16:01;;;;;;;1.50;1.40;;;;;;;20.70;57.83;97483.44;4955541;28;20251;-31
2023/05/07 05:18:28;;;;;;;1.40;1.30;;;;;;;20.68;57.48;97480.84;4955802;28;20235;-31
2023/05/07 05:20:54;;;;;;;1.70;1.60;;;;;;;20.65;57.42;97467.09;4956143;28;20226;-31
2023/05/07 05:23:21;;;;;;;3.50;1.70;;;;;;;20.66;57.71;97461.19;4956644;28;20204;-31
2023/05/07 05:25:48;;;;;;;1.53;1.43;;;;;;;20.64;57.36;97452.63;4953141;28;20204;-31
2023/05/07 05:28:14;;;;;;;1.80;1.70;;;;;;;20.68;57.33;97460.41;4954845;28;20684;-31
2023/05/07 05:30:41;;;;;;;1.33;1.23;;;;;;;20.68;57.75;97460.41;4955615;28;20790;-31
2023/05/07 05:33:07;;;;;;;1.70;1.50;;;;;;;20.70;57.91;97463.91;4950268;28;20212;-31
2023/05/07 05:35:35;;;;;;;1.73;1.63;;;;;;;20.70;57.50;97468.13;4954065;28;20223;-31
2023/05/07 05:38:01;;;;;;;1.60;1.50;;;;;;;20.71;57.45;97472.41;4952535;28;20204;-30
2023/05/07 05:40:28;;;;;;;2.10;1.80;;;;;;;20.70;57.37;97463.03;4955916;28;20259;-31
2023/05/07 05:42:55;;;;;;;1.60;1.50;;;;;;;20.71;57.13;97473.28;4956562;28;20211;-31
2023/05/07 05:45:21;;;;;;;1.70;1.60;;;;;;;20.72;57.30;97475.00;4955548;28;20600;-32
2023/05/07 05:47:48;;;;;;;2.90;1.60;;;;;;;20.72;57.14;97472.44;4949899;28;20204;-31
2023/05/07 05:50:14;;;;;;;5.53;2.10;;;;;;;20.74;57.60;97464.84;4954375;28;20259;-31
2023/05/07 05:52:41;;;;;;;2.93;2.07;;;;;;;20.73;57.71;97461.44;4952470;28;20208;-31
2023/05/07 05:55:08;;;;;;;3.43;2.00;;;;;;;20.75;57.83;97457.22;4948197;28;20602;-31
2023/05/07 05:57:35;;;;;;;5.57;1.90;;;;;;;20.77;57.74;97460.72;4952288;28;20582;-31
2023/05/07 06:00:02;;;;;;;3.63;2.00;;;;;;;20.73;57.57;97461.44;4941141;28;20208;-31
2023/05/07 06:02:29;;;;;;;8.70;1.90;;;;;;;20.75;57.64;97462.34;4951725;28;20235;-31
2023/05/07 06:04:55;;;;;;;3.23;2.10;;;;;;;20.76;57.73;97465.75;4958778;28;20196;-32
2023/05/07 06:07:22;;;;;;;3.10;1.90;;;;;;;20.75;57.77;97476.81;4952431;28;20201;-32
2023/05/07 06:09:49;;;;;;;6.83;2.37;;;;;;;20.74;57.92;97483.59;4953271;28;20719;-31
2023/05/07 06:12:15;;;;;;;2.97;2.20;;;;;;;20.72;57.67;97484.38;4956516;28;20647;-31
2023/05/07 06:14:45;;;;;;;3.17;2.00;;;;;;;20.72;57.69;97476.72;4957132;28;20422;-32
2023/05/07 06:17:11;;;;;;;3.83;2.07;;;;;;;20.70;58.31;97476.66;4954756;28;20639;-31
2023/05/07 06:19:38;;;;;;;3.60;1.97;;;;;;;20.71;57.53;97474.97;4960262;28;20424;-31
2023/05/07 06:22:05;;;;;;;2.87;1.90;;;;;;;20.70;58.01;97478.34;4950304;28;20271;-31
2023/05/07 06:24:31;;;;;;;2.93;1.90;;;;;;;20.70;57.70;97476.66;4959411;28;20200;-31
2023/05/07 06:26:58;;;;;;;9.00;3.00;;;;;;;20.71;58.85;97473.28;4948254;28;20284;-31
2023/05/07 06:29:30;;;;;;;7.30;2.47;;;;;;;20.61;58.17;97461.06;4966078;28;20208;-31
2023/05/07 06:31:56;;;;;;;8.33;2.40;;;;;;;20.73;58.04;97478.44;4958139;28;20235;-31
2023/05/07 06:34:23;;;;;;;4.03;2.47;;;;;;;20.73;58.23;97502.31;4955642;28;20208;-34
2023/05/07 06:36:49;;;;;;;10.33;2.43;;;;;;;20.73;57.60;97489.53;4957571;28;20224;-31
2023/05/07 06:39:16;;;;;;;2.33;2.03;;;;;;;20.70;57.82;97493.66;4957411;28;20291;-31
2023/05/07 06:41:42;;;;;;;5.37;2.50;;;;;;;20.74;57.56;97508.25;4956321;28;20279;-31
2023/05/07 06:44:09;;;;;;;6.13;2.63;;;;;;;20.75;58.29;97510.00;4943251;28;20239;-31
2023/05/07 06:46:36;;;;;;;14.97;2.67;;;;;;;20.75;58.18;97504.91;4943137;28;20236;-32
2023/05/07 06:49:02;;;;;;;6.50;2.43;;;;;;;20.75;58.04;97502.34;4942837;28;20239;-33
2023/05/07 06:51:29;;;;;;;3.57;2.57;;;;;;;20.76;58.15;97507.50;4941090;28;20726;-31
2023/05/07 06:53:56;;;;;;;7.27;2.70;;;;;;;20.77;58.43;97505.78;4937066;28;20213;-32
2023/05/07 06:56:23;;;;;;;6.03;2.37;;;;;;;20.77;58.05;97504.13;4941523;28;20224;-33
2023/05/07 06:58:49;;;;;;;9.73;2.33;;;;;;;20.77;58.01;97506.69;4942821;28;20235;-31
2023/05/07 07:01:16;;;;;;;4.03;2.40;;;;;;;20.74;58.08;97498.91;4941557;28;20288;-30
2023/05/07 07:03:43;;;;;;;6.20;2.60;;;;;;;20.75;57.95;97504.91;4942233;28;20227;-32
2023/05/07 07:06:09;;;;;;;3.40;2.43;;;;;;;20.50;57.89;97464.06;4941530;28;20678;-31
2023/05/07 07:08:38;;;;;;;4.43;2.50;;;;;;;20.73;58.07;97507.41;4943565;28;20244;-32
2023/05/07 07:11:05;;;;;;;2.53;2.00;;;;;;;20.73;57.95;97507.41;4942815;28;20235;-32
2023/05/07 07:13:32;;;;;;;7.23;2.50;;;;;;;20.73;57.88;97509.09;4941256;28;20258;-31
2023/05/07 07:15:59;;;;;;;4.10;2.53;;;;;;;20.73;58.05;97514.19;4943642;28;20220;-31
2023/05/07 07:18:26;;;;;;;7.87;2.60;;;;;;;20.72;57.75;97510.75;4941848;28;20267;-31
2023/05/07 07:20:52;;;;;;;2.90;2.10;;;;;;;20.73;57.85;97512.53;4944647;28;20242;-31
2023/05/07 07:23:19;;;;;;;3.60;2.40;;;;;;;20.74;57.84;97510.81;4944380;28;20217;-32
2023/05/07 07:25:45;;;;;;;4.60;2.17;;;;;;;20.73;57.56;97509.97;4941763;28;20547;-31
2023/05/07 07:28:12;;;;;;;2.50;2.20;;;;;;;20.74;57.82;97511.69;4945179;28;20219;-31
2023/05/07 07:30:39;;;;;;;5.33;2.17;;;;;;;20.73;57.67;97507.41;4943120;28;20268;-32
2023/05/07 07:33:05;;;;;;;3.23;2.07;;;;;;;20.75;57.77;97515.13;4942805;28;20642;-31
2023/05/07 07:35:32;;;;;;;3.60;2.10;;;;;;;20.75;57.68;97507.47;4943903;28;20227;-34
2023/05/07 07:37:59;;;;;;;3.30;2.13;;;;;;;20.74;57.80;97516.78;4943209;28;20675;-31
2023/05/07 07:40:25;;;;;;;3.33;1.93;;;;;;;20.74;57.90;97514.25;4939887;28;20228;-32
2023/05/07 07:42:53;;;;;;;3.20;2.27;;;;;;;20.73;57.65;97509.97;4942994;28;20216;-33
2023/05/07 07:45:19;;;;;;;2.20;1.90;;;;;;;20.74;57.85;97519.34;4944467;28;20216;-31
2023/05/07 07:47:46;;;;;;;2.83;2.23;;;;;;;20.73;57.54;97519.31;4944490;28;20287;-31
2023/05/07 07:50:13;;;;;;;2.60;2.13;;;;;;;20.74;57.52;97524.47;4942408;28;20224;-32
2023/05/07 07:52:57;;;;;;;2.80;2.10;;;;;;;20.73;57.43;97520.19;4942446;28;20291;-32
2023/05/07 07:55:24;;;;;;;3.80;2.00;;;;;;;20.72;57.67;97520.13;4942870;28;20700;-33
2023/05/07 07:57:50;;;;;;;3.73;2.17;;;;;;;20.72;58.12;97520.13;4941534;28;20235;-32
2023/05/07 08:00:17;;;;;;;6.30;1.80;;;;;;;20.72;57.70;97520.13;4942450;28;20238;-33
2023/05/07 08:02:43;;;;;;;3.57;2.07;;;;;;;20.71;57.10;97519.25;4942004;28;20291;-31
2023/05/07 08:05:10;;;;;;;3.20;1.90;;;;;;;20.70;57.57;97509.88;4940310;28;20216;-33
2023/05/07 08:07:37;;;;;;;2.20;2.00;;;;;;;20.72;57.63;97522.69;4942150;28;20208;-31
2023/05/07 08:10:04;;;;;;;3.40;1.90;;;;;;;20.71;57.63;97524.34;4939271;28;20208;-31
2023/05/07 08:12:30;;;;;;;1.90;1.70;;;;;;;20.72;57.62;97523.53;4941493;28;20208;-32
2023/05/07 08:14:57;;;;;;;2.10;1.90;;;;;;;20.68;58.15;97514.03;4939582;28;20223;-31
2023/05/07 08:17:24;;;;;;;4.67;2.00;;;;;;;20.73;57.50;97529.50;4922390;28;20298;-33
2023/05/07 08:19:51;;;;;;;2.27;2.07;;;;;;;20.73;57.01;97543.16;4940859;28;20299;-33
2023/05/07 08:22:18;;;;;;;3.43;2.10;;;;;;;20.74;57.45;97521.03;4940691;28;20208;-32
2023/05/07 08:24:44;;;;;;;2.10;1.90;;;;;;;20.73;57.44;97517.63;4943417;28;20244;-31
2023/05/07 08:27:11;;;;;;;2.20;2.00;;;;;;;20.73;57.57;97517.63;4941687;28;20265;-32
2023/05/07 08:29:38;;;;;;;2.20;2.00;;;;;;;20.72;57.67;97513.31;4940857;28;20485;-31
2023/05/07 08:32:04;;;;;;;2.13;1.97;;;;;;;20.74;57.60;97509.13;4939905;28;21709;-31
2023/05/07 08:34:31;;;;;;;2.53;2.00;;;;;;;20.74;57.35;97505.69;4940100;28;20504;-32
2023/05/07 08:36:58;;;;;;;2.00;1.80;;;;;;;20.73;57.54;97512.53;4940785;28;20503;-34
2023/05/07 08:39:24;;;;;;;3.43;2.00;;;;;;;20.75;57.57;97520.22;4939625;28;20216;-31
2023/05/07 08:41:51;;;;;;;2.20;2.00;;;;;;;20.74;57.37;97516.78;4939945;28;20251;-34
2023/05/07 08:44:17;;;;;;;2.13;1.90;;;;;;;20.74;57.17;97515.91;4922294;28;20208;-32
2023/05/07 08:46:46;;;;;;;2.20;2.00;;;;;;;20.71;57.50;97508.16;4923553;28;20207;-31
2023/05/07 08:49:13;;;;;;;3.73;2.63;;;;;;;20.77;59.21;97519.44;4924168;28;20205;-31
2023/05/07 08:51:40;;;;;;;5.80;2.60;;;;;;;20.80;59.63;97521.22;4936642;28;20311;-31
2023/05/07 08:54:07;;;;;;;3.73;2.87;;;;;;;20.72;59.80;97497.16;4923450;28;20575;-31
2023/05/07 08:56:33;;;;;;;3.73;2.53;;;;;;;20.81;59.97;97518.72;4940712;28;20338;-31
2023/05/07 08:59:00;;;;;;;3.90;2.53;;;;;;;20.81;60.27;97511.06;4939557;28;20239;-33
2023/05/07 09:01:27;;;;;;;3.17;2.87;;;;;;;20.83;60.19;97518.75;4940464;28;20235;-33
2023/05/07 09:03:54;;;;;;;3.30;2.60;;;;;;;20.85;60.10;97520.56;4940238;28;20218;-32
2023/05/07 09:06:21;;;;;;;4.17;2.40;;;;;;;20.84;60.09;97521.38;4940032;28;20197;-31
2023/05/07 09:08:52;;;;;;;5.40;2.90;;;;;;;20.87;59.62;97524.03;4939866;28;20627;-32
2023/05/07 09:11:22;;;;;;;3.83;2.40;;;;;;;20.89;59.54;97526.63;4940413;28;20239;-33
2023/05/07 09:13:55;;;;;;;3.80;2.50;;;;;;;20.89;59.45;97527.50;4941807;28;20204;-33
2023/05/07 09:16:23;;;;;;;2.63;2.43;;;;;;;20.90;59.61;97529.22;4940220;28;20283;-33
2023/05/07 09:18:53;;;;;;;3.60;2.53;;;;;;;20.88;59.64;97519.78;4940420;28;20279;-32
2023/05/07 09:21:20;;;;;;;4.07;2.57;;;;;;;20.90;59.61;97524.13;4940048;28;20256;-31
2023/05/07 09:23:54;;;;;;;4.00;2.80;;;;;;;20.92;59.47;97521.59;4944242;28;20228;-33
2023/05/07 09:26:24;;;;;;;4.63;2.90;;;;;;;20.93;59.46;97521.66;4942389;28;21177;-32
2023/05/07 09:28:51;;;;;;;2.93;2.57;;;;;;;20.93;59.25;97511.44;4939107;28;20204;-32
2023/05/07 09:31:17;;;;;;;3.30;2.33;;;;;;;20.94;59.04;97514.88;4939401;28;20334;-32
2023/05/07 09:33:47;;;;;;;2.67;2.43;;;;;;;20.91;59.69;97513.09;4939274;28;20281;-31
2023/05/07 09:36:13;;;;;;;3.67;2.57;;;;;;;20.94;59.81;97513.19;4938091;28;20239;-32
2023/05/07 09:38:40;;;;;;;4.30;2.70;;;;;;;20.91;59.58;97512.22;4937867;28;20283;-32
2023/05/07 09:41:11;;;;;;;4.20;2.80;;;;;;;20.93;59.66;97511.44;4944739;28;20651;-31
2023/05/07 09:43:38;;;;;;;3.80;2.67;;;;;;;20.90;59.62;97506.22;4944397;28;20216;-31
2023/05/07 09:46:12;;;;;;;3.13;2.83;;;;;;;20.94;59.50;97515.75;4952044;28;20300;-31
2023/05/07 09:48:40;;;;;;;3.57;2.60;;;;;;;20.94;59.36;97510.63;4952781;28;20195;-34
2023/05/07 09:51:28;;;;;;;3.60;2.40;;;;;;;20.92;59.39;97499.50;4954653;28;20231;-31
2023/05/07 09:53:56;;;;;;;4.53;2.77;;;;;;;20.94;59.49;97509.75;4948579;28;20203;-31
2023/05/07 09:56:23;;;;;;;2.70;2.40;;;;;;;20.95;59.06;97501.31;4949098;28;20655;-31
2023/05/07 09:58:49;;;;;;;3.97;2.60;;;;;;;20.94;59.24;97500.44;4941881;28;20204;-31
2023/05/07 10:01:16;;;;;;;2.67;2.47;;;;;;;20.92;59.06;97490.94;4951465;28;20271;-32
2023/05/07 10:03:42;;;;;;;2.50;2.30;;;;;;;20.95;58.88;97502.19;4932669;28;20201;-31
2023/05/07 10:06:10;;;;;;;2.93;2.63;;;;;;;20.95;59.54;97504.72;4937847;28;20263;-31
2023/05/07 10:08:37;;;;;;;3.83;2.47;;;;;;;20.95;59.44;97507.28;4952966;28;20215;-32
2023/05/07 10:11:04;;;;;;;3.43;2.60;;;;;;;20.95;59.42;97499.63;4955190;28;20633;-32
2023/05/07 10:13:33;;;;;;;2.83;2.30;;;;;;;20.96;59.30;97503.06;4952800;28;20288;-32
2023/05/07 10:15:59;;;;;;;3.73;2.57;;;;;;;20.92;59.50;97499.50;4951322;28;20251;-32
2023/05/07 10:18:29;;;;;;;4.07;2.30;;;;;;;20.96;59.81;97516.69;4953554;28;20203;-32
2023/05/07 10:20:56;;;;;;;3.27;2.50;;;;;;;20.96;59.37;97500.50;4942006;28;20242;-31
2023/05/07 10:23:23;;;;;;;4.17;2.40;;;;;;;20.95;59.40;97497.06;4949717;28;20213;-31
2023/05/07 10:25:50;;;;;;;3.70;2.50;;;;;;;20.95;59.64;97491.09;4955884;28;20263;-32
2023/05/07 10:28:19;;;;;;;3.10;2.50;;;;;;;20.94;59.41;97485.09;4952002;28;20213;-31
2023/05/07 10:33:16;;;;;;;5.47;2.60;;;;;;;20.91;59.80;97477.34;4946958;28;20226;-41
2023/05/07 10:35:44;;;;;;;4.50;3.20;;;;;;;20.84;59.55;97470.28;4957858;29;20212;-33
2023/05/07 10:38:10;;;;;;;5.17;3.40;;;;;;;20.81;59.77;97466.78;4947911;29;20304;-35
2023/05/07 10:40:37;;;;;;;7.23;3.00;;;;;;;20.72;59.93;97451.19;4944605;29;20252;-46
2023/05/07 10:43:04;;;;;;;3.50;3.00;;;;;;;20.92;59.57;97479.06;4949050;29;20224;-46
2023/05/07 10:45:35;;;;;;;3.37;3.00;;;;;;;20.89;59.54;97489.19;4944240;29;20205;-39
2023/05/07 10:48:14;;;;;;;3.50;2.80;;;;;;;20.91;59.67;97473.91;4944316;29;20668;-33
2023/05/07 10:50:44;;;;;;;3.80;2.67;;;;;;;20.92;59.81;97484.16;4941663;29;20239;-43
2023/05/07 10:53:16;;;;;;;3.53;2.50;;;;;;;20.92;59.85;97485.84;4945064;29;20723;-39
2023/05/07 10:55:46;;;;;;;3.17;2.80;;;;;;;20.92;59.60;97484.16;4944462;29;20256;-36
2023/05/07 10:58:26;;;;;;;3.60;2.83;;;;;;;20.90;59.43;97482.41;4944262;29;20248;-45
2023/05/07 11:00:59;;;;;;;3.60;2.60;;;;;;;20.92;59.55;97483.28;4943155;29;20311;-40
2023/05/07 11:03:26;;;;;;;5.20;2.90;;;;;;;20.80;59.63;97463.34;4946147;29;20204;-40
2023/05/07 11:06:13;;;;;;;4.90;2.93;;;;;;;20.83;59.44;97460.91;4944464;29;20220;-38
2023/05/07 11:08:51;;;;;;;4.70;2.90;;;;;;;20.91;59.53;97482.44;4943933;29;20205;-45
2023/05/07 11:11:19;;;;;;;3.27;2.63;;;;;;;20.88;59.50;97477.25;4942406;29;20468;-40
2023/05/07 11:13:46;;;;;;;7.47;3.37;;;;;;;20.89;59.30;97503.63;4940655;29;20237;-46
2023/05/07 11:16:20;;;;;;;3.67;2.50;;;;;;;20.90;59.50;97473.03;4942777;29;20208;-33
2023/05/07 11:18:52;;;;;;;4.80;2.77;;;;;;;20.91;59.43;97479.88;4940824;29;20209;-39
2023/05/07 11:21:38;;;;;;;4.27;2.93;;;;;;;20.93;59.34;97482.50;4943031;29;20229;-43
2023/05/07 11:24:05;;;;;;;6.63;3.27;;;;;;;20.90;59.43;97467.91;4948650;29;20205;-34
2023/05/07 11:26:43;;;;;;;4.53;3.13;;;;;;;20.78;59.30;97444.56;4941729;29;20233;-38
2023/05/07 11:29:28;;;;;;;7.47;3.50;;;;;;;20.92;58.98;97476.50;4939755;29;20236;-32
2023/05/07 11:31:55;;;;;;;5.73;3.20;;;;;;;20.90;58.90;97475.56;4940953;29;20231;-38
2023/05/07 11:34:25;;;;;;;8.47;3.53;;;;;;;20.87;59.10;97469.53;4943121;29;20202;-38
2023/05/07 11:36:52;;;;;;;8.53;4.00;;;;;;;20.85;58.96;97474.59;4941318;29;20216;-34